sensor_id;sensor_type;location;lat;lon;timestamp;P1;durP1;ratioP1;P2;durP2;ratioP2
40555;SDS011;26250;45.422;11.100;2022-10-15T06:17:25;74.32;;;60.25;;
40555;SDS011;26250;45.422;11.100;2022-10-15T06:19:52;78.50;;;58.58;;
40555;SDS011;26250;45.422;11.100;2022-10-15T06:22:19;76.18;;;59.72;;
40555;SDS011;26250;45.422;11.100;2022-10-15T06:24:46;78.60;;;59.28;;
40555;SDS011;26250;45.422;11.100;2022-10-15T06:27:12;75.10;;;56.53;;
40555;SDS011;26250;45.422;11.100;2022-10-15T10:56:43;99.88;;;70.70;;
40555;SDS011;26250;45.422;11.100;2022-10-15T10:59:15;89.93;;;70.40;;
40555;SDS011;26250;45.422;11.100;2022-10-15T11:01:47;92.75;;;68.57;;
40555;SDS011;26250;45.422;11.100;2022-10-15T11:04:22;102.28;;;72.57;;
40555;SDS011;26250;45.422;11.100;2022-10-15T11:09:54;93.70;;;68.13;;
40555;SDS011;26250;45.422;11.100;2022-10-15T11:12:48;98.72;;;71.95;;
40555;SDS011;26250;45.422;11.100;2022-10-15T11:35:41;98.07;;;66.57;;
40555;SDS011;26250;45.422;11.100;2022-10-15T11:38:37;93.57;;;65.68;;
40555;SDS011;26250;45.422;11.100;2022-10-15T11:41:24;93.22;;;68.65;;
40555;SDS011;26250;45.422;11.100;2022-10-15T11:52:23;94.70;;;69.07;;
40555;SDS011;26250;45.422;11.100;2022-10-15T11:57:28;81.43;;;65.22;;
40555;SDS011;26250;45.422;11.100;2022-10-15T12:00:03;102.93;;;67.15;;
40555;SDS011;26250;45.422;11.100;2022-10-15T12:02:42;93.78;;;65.40;;
40555;SDS011;26250;45.422;11.100;2022-10-15T12:05:16;93.72;;;67.88;;
40555;SDS011;26250;45.422;11.100;2022-10-15T12:07:47;92.55;;;65.97;;
40555;SDS011;26250;45.422;11.100;2022-10-15T12:13:25;91.80;;;63.33;;
40555;SDS011;26250;45.422;11.100;2022-10-15T17:53:43;83.50;;;63.00;;
40555;SDS011;26250;45.422;11.100;2022-10-15T17:56:20;94.57;;;66.68;;
40555;SDS011;26250;45.422;11.100;2022-10-15T17:58:52;84.05;;;62.10;;
40555;SDS011;26250;45.422;11.100;2022-10-15T18:01:23;89.53;;;62.08;;
40555;SDS011;26250;45.422;11.100;2022-10-15T18:04:11;92.00;;;64.78;;
40555;SDS011;26250;45.422;11.100;2022-10-15T18:06:41;85.85;;;61.95;;
40555;SDS011;26250;45.422;11.100;2022-10-15T18:09:21;88.10;;;62.25;;
40555;SDS011;26250;45.422;11.100;2022-10-15T18:11:49;85.30;;;61.47;;
40555;SDS011;26250;45.422;11.100;2022-10-15T18:14:16;73.85;;;61.05;;
40555;SDS011;26250;45.422;11.100;2022-10-15T18:16:43;89.43;;;63.03;;
40555;SDS011;26250;45.422;11.100;2022-10-15T18:19:11;85.85;;;64.93;;
40555;SDS011;26250;45.422;11.100;2022-10-15T18:21:38;76.60;;;62.20;;
40555;SDS011;26250;45.422;11.100;2022-10-15T18:24:05;94.57;;;65.53;;
40555;SDS011;26250;45.422;11.100;2022-10-15T18:26:31;86.32;;;63.85;;
40555;SDS011;26250;45.422;11.100;2022-10-15T18:28:58;76.60;;;61.15;;
40555;SDS011;26250;45.422;11.100;2022-10-15T18:31:25;96.97;;;63.85;;
40555;SDS011;26250;45.422;11.100;2022-10-15T18:33:53;83.80;;;63.53;;
40555;SDS011;26250;45.422;11.100;2022-10-15T18:36:22;81.60;;;62.65;;
40555;SDS011;26250;45.422;11.100;2022-10-15T18:38:53;86.82;;;67.22;;
40555;SDS011;26250;45.422;11.100;2022-10-15T18:43:59;89.95;;;61.92;;
40555;SDS011;26250;45.422;11.100;2022-10-15T18:46:30;100.13;;;63.15;;
40555;SDS011;26250;45.422;11.100;2022-10-15T18:48:59;87.57;;;61.03;;
40555;SDS011;26250;45.422;11.100;2022-10-15T18:51:28;90.97;;;64.93;;
40555;SDS011;26250;45.422;11.100;2022-10-15T18:53:58;98.93;;;63.00;;
40555;SDS011;26250;45.422;11.100;2022-10-15T18:56:26;101.53;;;64.20;;
40555;SDS011;26250;45.422;11.100;2022-10-15T18:58:53;89.90;;;60.75;;
40555;SDS011;26250;45.422;11.100;2022-10-15T19:03:55;79.53;;;62.30;;
40555;SDS011;26250;45.422;11.100;2022-10-15T19:06:30;85.38;;;60.60;;
40555;SDS011;26250;45.422;11.100;2022-10-15T19:09:00;83.30;;;62.15;;
40555;SDS011;26250;45.422;11.100;2022-10-15T19:11:30;81.38;;;60.75;;
40555;SDS011;26250;45.422;11.100;2022-10-15T19:14:00;102.05;;;63.50;;
40555;SDS011;26250;45.422;11.100;2022-10-15T19:16:28;77.97;;;61.10;;
40555;SDS011;26250;45.422;11.100;2022-10-15T19:19:00;83.78;;;60.13;;
40555;SDS011;26250;45.422;11.100;2022-10-15T19:21:28;103.65;;;59.90;;
40555;SDS011;26250;45.422;11.100;2022-10-15T19:23:55;110.07;;;60.05;;
40555;SDS011;26250;45.422;11.100;2022-10-15T19:26:23;94.30;;;58.40;;
40555;SDS011;26250;45.422;11.100;2022-10-15T19:28:50;100.53;;;62.60;;
40555;SDS011;26250;45.422;11.100;2022-10-15T19:31:25;84.97;;;59.97;;
40555;SDS011;26250;45.422;11.100;2022-10-15T19:33:53;82.68;;;57.97;;
40555;SDS011;26250;45.422;11.100;2022-10-15T19:36:27;81.97;;;56.72;;
40555;SDS011;26250;45.422;11.100;2022-10-15T19:39:00;69.25;;;52.10;;
40555;SDS011;26250;45.422;11.100;2022-10-15T19:41:37;74.93;;;54.88;;
40555;SDS011;26250;45.422;11.100;2022-10-15T19:44:06;76.07;;;54.38;;
40555;SDS011;26250;45.422;11.100;2022-10-15T19:46:36;80.00;;;54.67;;
40555;SDS011;26250;45.422;11.100;2022-10-15T19:49:04;85.63;;;56.72;;
40555;SDS011;26250;45.422;11.100;2022-10-15T19:51:32;84.63;;;55.35;;
40555;SDS011;26250;45.422;11.100;2022-10-15T19:54:00;76.90;;;54.22;;
40555;SDS011;26250;45.422;11.100;2022-10-15T19:56:30;73.47;;;54.15;;
40555;SDS011;26250;45.422;11.100;2022-10-15T19:58:58;76.80;;;54.05;;
40555;SDS011;26250;45.422;11.100;2022-10-15T20:01:27;72.78;;;52.40;;
40555;SDS011;26250;45.422;11.100;2022-10-15T20:03:59;65.95;;;51.53;;
40555;SDS011;26250;45.422;11.100;2022-10-15T20:06:37;69.88;;;52.42;;
40555;SDS011;26250;45.422;11.100;2022-10-15T20:09:04;74.88;;;52.00;;
40555;SDS011;26250;45.422;11.100;2022-10-15T20:11:32;68.65;;;51.55;;
40555;SDS011;26250;45.422;11.100;2022-10-15T20:13:59;67.22;;;53.92;;
40555;SDS011;26250;45.422;11.100;2022-10-15T20:16:26;89.68;;;59.63;;
40555;SDS011;26250;45.422;11.100;2022-10-15T20:18:59;73.78;;;55.35;;
40555;SDS011;26250;45.422;11.100;2022-10-15T20:21:27;76.40;;;56.10;;
40555;SDS011;26250;45.422;11.100;2022-10-15T20:23:54;66.32;;;54.28;;
40555;SDS011;26250;45.422;11.100;2022-10-15T20:26:21;64.80;;;55.50;;
40555;SDS011;26250;45.422;11.100;2022-10-15T20:28:49;79.15;;;57.30;;
40555;SDS011;26250;45.422;11.100;2022-10-15T20:31:17;70.72;;;56.03;;
40555;SDS011;26250;45.422;11.100;2022-10-15T20:33:53;77.60;;;58.65;;
40555;SDS011;26250;45.422;11.100;2022-10-15T20:36:20;82.57;;;57.63;;
40555;SDS011;26250;45.422;11.100;2022-10-15T20:38:50;70.45;;;57.17;;
40555;SDS011;26250;45.422;11.100;2022-10-15T20:41:17;75.32;;;59.17;;
40555;SDS011;26250;45.422;11.100;2022-10-15T20:43:45;76.15;;;56.08;;
40555;SDS011;26250;45.422;11.100;2022-10-15T20:47:03;66.90;;;54.10;;
40555;SDS011;26250;45.422;11.100;2022-10-15T20:49:16;98.43;;;55.45;;
40555;SDS011;26250;45.422;11.100;2022-10-15T20:51:46;64.05;;;52.95;;
40555;SDS011;26250;45.422;11.100;2022-10-15T20:54:14;74.47;;;53.28;;
40555;SDS011;26250;45.422;11.100;2022-10-15T20:56:43;72.95;;;55.03;;
40555;SDS011;26250;45.422;11.100;2022-10-15T20:59:10;62.63;;;50.72;;
40555;SDS011;26250;45.422;11.100;2022-10-15T21:01:37;62.53;;;53.47;;
40555;SDS011;26250;45.422;11.100;2022-10-15T21:04:04;72.55;;;53.85;;
40555;SDS011;26250;45.422;11.100;2022-10-15T21:06:31;77.70;;;54.63;;
40555;SDS011;26250;45.422;11.100;2022-10-15T21:08:58;65.50;;;52.03;;
40555;SDS011;26250;45.422;11.100;2022-10-15T21:11:26;62.20;;;49.58;;
40555;SDS011;26250;45.422;11.100;2022-10-15T21:13:52;65.18;;;52.55;;
40555;SDS011;26250;45.422;11.100;2022-10-15T21:16:19;63.65;;;52.05;;
40555;SDS011;26250;45.422;11.100;2022-10-15T21:18:52;69.57;;;51.90;;
40555;SDS011;26250;45.422;11.100;2022-10-15T21:21:19;62.67;;;48.92;;
40555;SDS011;26250;45.422;11.100;2022-10-15T21:23:46;65.95;;;51.05;;
40555;SDS011;26250;45.422;11.100;2022-10-15T21:26:14;65.43;;;51.80;;
40555;SDS011;26250;45.422;11.100;2022-10-15T21:28:42;64.38;;;50.63;;
40555;SDS011;26250;45.422;11.100;2022-10-15T21:31:12;56.60;;;48.83;;
40555;SDS011;26250;45.422;11.100;2022-10-15T21:33:41;66.25;;;52.30;;
